EGOP - Pembrey Sands
Distance from station: E 5mi, 14km
Updated: 12/17/2017 6:50pm
Clear
Clear
 Wind from NNE
Wind: NNE 6 mph , 9 km/h
Temperature: 39°F , 4°C
Wind Chill: 35°F , 2°C
Dew Point: 37°F , 3°C
Humidity: 93%
Barometer: 30.3 inHg , 1026 hPa
Clouds: Clear
Visibility: 6 miles , 10 km
2017/12/18 02:50 EGOP 180250Z AUTO 03005KT 9999 // NCD 04/03 Q1026